sensor_id;sensor_type;location;lat;lon;timestamp;P1;durP1;ratioP1;P2;durP2;ratioP2
8001;SDS011;4046;48.774;8.732;2023-02-21T00:01:52;2.07;;;1.97;;
8001;SDS011;4046;48.774;8.732;2023-02-21T00:04:37;2.00;;;1.90;;
8001;SDS011;4046;48.774;8.732;2023-02-21T00:07:22;2.20;;;2.10;;
8001;SDS011;4046;48.774;8.732;2023-02-21T00:10:08;2.33;;;2.13;;
8001;SDS011;4046;48.774;8.732;2023-02-21T00:12:55;2.27;;;2.07;;
8001;SDS011;4046;48.774;8.732;2023-02-21T00:15:40;2.17;;;1.97;;
8001;SDS011;4046;48.774;8.732;2023-02-21T00:18:25;2.40;;;2.30;;
8001;SDS011;4046;48.774;8.732;2023-02-21T00:21:10;2.40;;;2.20;;
8001;SDS011;4046;48.774;8.732;2023-02-21T00:23:55;2.33;;;2.10;;
8001;SDS011;4046;48.774;8.732;2023-02-21T00:26:40;2.17;;;2.00;;
8001;SDS011;4046;48.774;8.732;2023-02-21T00:29:24;2.30;;;2.20;;
8001;SDS011;4046;48.774;8.732;2023-02-21T00:32:10;2.00;;;1.90;;
8001;SDS011;4046;48.774;8.732;2023-02-21T00:34:55;2.20;;;2.00;;
8001;SDS011;4046;48.774;8.732;2023-02-21T00:37:40;2.20;;;2.10;;
8001;SDS011;4046;48.774;8.732;2023-02-21T00:40:25;2.40;;;2.20;;
8001;SDS011;4046;48.774;8.732;2023-02-21T00:43:10;2.53;;;2.33;;
8001;SDS011;4046;48.774;8.732;2023-02-21T00:45:54;2.37;;;2.17;;
8001;SDS011;4046;48.774;8.732;2023-02-21T00:48:39;2.33;;;2.13;;
8001;SDS011;4046;48.774;8.732;2023-02-21T00:51:24;2.20;;;2.00;;
8001;SDS011;4046;48.774;8.732;2023-02-21T00:54:08;2.30;;;2.20;;
8001;SDS011;4046;48.774;8.732;2023-02-21T00:56:54;2.37;;;2.17;;
8001;SDS011;4046;48.774;8.732;2023-02-21T00:59:39;2.53;;;2.33;;
8001;SDS011;4046;48.774;8.732;2023-02-21T01:02:24;2.37;;;2.23;;
8001;SDS011;4046;48.774;8.732;2023-02-21T01:05:09;2.17;;;1.97;;
8001;SDS011;4046;48.774;8.732;2023-02-21T01:07:53;2.33;;;2.13;;
8001;SDS011;4046;48.774;8.732;2023-02-21T01:10:38;2.17;;;1.97;;
8001;SDS011;4046;48.774;8.732;2023-02-21T01:13:23;2.00;;;1.90;;
8001;SDS011;4046;48.774;8.732;2023-02-21T01:16:08;2.30;;;2.20;;
8001;SDS011;4046;48.774;8.732;2023-02-21T01:18:53;2.27;;;2.07;;
8001;SDS011;4046;48.774;8.732;2023-02-21T01:21:37;2.10;;;2.00;;
8001;SDS011;4046;48.774;8.732;2023-02-21T01:24:22;2.03;;;1.93;;
8001;SDS011;4046;48.774;8.732;2023-02-21T01:27:07;2.20;;;2.10;;
8001;SDS011;4046;48.774;8.732;2023-02-21T01:29:52;1.80;;;1.70;;
8001;SDS011;4046;48.774;8.732;2023-02-21T01:32:37;2.10;;;2.00;;
8001;SDS011;4046;48.774;8.732;2023-02-21T01:35:21;2.17;;;1.97;;
8001;SDS011;4046;48.774;8.732;2023-02-21T01:38:06;1.73;;;1.63;;
8001;SDS011;4046;48.774;8.732;2023-02-21T01:40:51;2.57;;;2.37;;
8001;SDS011;4046;48.774;8.732;2023-02-21T01:43:36;1.90;;;1.80;;
8001;SDS011;4046;48.774;8.732;2023-02-21T01:46:21;3.10;;;2.00;;
8001;SDS011;4046;48.774;8.732;2023-02-21T01:49:12;2.33;;;2.13;;
8001;SDS011;4046;48.774;8.732;2023-02-21T01:52:01;2.47;;;2.27;;
8001;SDS011;4046;48.774;8.732;2023-02-21T01:54:48;2.23;;;2.07;;
8001;SDS011;4046;48.774;8.732;2023-02-21T01:57:37;2.40;;;2.30;;
8001;SDS011;4046;48.774;8.732;2023-02-21T02:00:22;2.27;;;2.07;;
8001;SDS011;4046;48.774;8.732;2023-02-21T02:03:09;2.37;;;2.17;;
8001;SDS011;4046;48.774;8.732;2023-02-21T02:05:57;2.10;;;2.00;;
8001;SDS011;4046;48.774;8.732;2023-02-21T02:08:44;1.90;;;1.70;;
8001;SDS011;4046;48.774;8.732;2023-02-21T02:20:16;2.30;;;2.20;;
8001;SDS011;4046;48.774;8.732;2023-02-21T02:37:28;1.80;;;1.70;;
8001;SDS011;4046;48.774;8.732;2023-02-21T02:43:24;2.10;;;2.00;;
8001;SDS011;4046;48.774;8.732;2023-02-21T02:46:03;1.93;;;1.83;;
8001;SDS011;4046;48.774;8.732;2023-02-21T02:48:50;2.00;;;1.87;;
8001;SDS011;4046;48.774;8.732;2023-02-21T02:51:20;1.90;;;1.80;;
8001;SDS011;4046;48.774;8.732;2023-02-21T02:53:47;1.80;;;1.70;;
8001;SDS011;4046;48.774;8.732;2023-02-21T02:56:13;2.20;;;2.10;;
8001;SDS011;4046;48.774;8.732;2023-02-21T03:04:30;2.40;;;2.20;;
8001;SDS011;4046;48.774;8.732;2023-02-21T03:09:31;2.23;;;2.03;;
8001;SDS011;4046;48.774;8.732;2023-02-21T03:12:19;2.00;;;1.90;;
8001;SDS011;4046;48.774;8.732;2023-02-21T03:18:01;2.30;;;2.10;;
8001;SDS011;4046;48.774;8.732;2023-02-21T03:20:33;1.90;;;1.80;;
8001;SDS011;4046;48.774;8.732;2023-02-21T03:23:02;2.10;;;2.00;;
8001;SDS011;4046;48.774;8.732;2023-02-21T03:25:30;1.90;;;1.80;;
8001;SDS011;4046;48.774;8.732;2023-02-21T03:27:58;1.80;;;1.70;;
8001;SDS011;4046;48.774;8.732;2023-02-21T03:30:27;1.93;;;1.83;;
8001;SDS011;4046;48.774;8.732;2023-02-21T03:32:54;2.57;;;2.03;;
8001;SDS011;4046;48.774;8.732;2023-02-21T03:35:21;2.10;;;2.00;;
8001;SDS011;4046;48.774;8.732;2023-02-21T03:37:48;2.10;;;2.00;;
8001;SDS011;4046;48.774;8.732;2023-02-21T03:40:23;1.90;;;1.80;;
8001;SDS011;4046;48.774;8.732;2023-02-21T03:42:55;2.13;;;1.93;;
8001;SDS011;4046;48.774;8.732;2023-02-21T03:45:22;2.17;;;1.97;;
8001;SDS011;4046;48.774;8.732;2023-02-21T03:47:49;2.07;;;1.87;;
8001;SDS011;4046;48.774;8.732;2023-02-21T03:50:15;1.80;;;1.70;;
8001;SDS011;4046;48.774;8.732;2023-02-21T03:52:42;1.80;;;1.70;;
8001;SDS011;4046;48.774;8.732;2023-02-21T03:55:08;1.90;;;1.80;;
8001;SDS011;4046;48.774;8.732;2023-02-21T03:57:35;1.67;;;1.57;;
8001;SDS011;4046;48.774;8.732;2023-02-21T04:00:02;2.20;;;2.00;;
8001;SDS011;4046;48.774;8.732;2023-02-21T04:02:29;1.70;;;1.60;;
8001;SDS011;4046;48.774;8.732;2023-02-21T04:04:55;2.00;;;1.90;;
8001;SDS011;4046;48.774;8.732;2023-02-21T04:07:21;1.93;;;1.83;;
8001;SDS011;4046;48.774;8.732;2023-02-21T04:09:47;2.00;;;1.90;;
8001;SDS011;4046;48.774;8.732;2023-02-21T04:12:14;2.13;;;2.00;;
8001;SDS011;4046;48.774;8.732;2023-02-21T04:14:40;1.87;;;1.73;;
8001;SDS011;4046;48.774;8.732;2023-02-21T04:17:07;1.90;;;1.80;;
8001;SDS011;4046;48.774;8.732;2023-02-21T04:19:33;1.90;;;1.73;;
8001;SDS011;4046;48.774;8.732;2023-02-21T04:22:00;1.80;;;1.70;;
8001;SDS011;4046;48.774;8.732;2023-02-21T04:24:26;1.67;;;1.57;;
8001;SDS011;4046;48.774;8.732;2023-02-21T04:26:52;1.90;;;1.80;;
8001;SDS011;4046;48.774;8.732;2023-02-21T04:29:19;1.80;;;1.70;;
8001;SDS011;4046;48.774;8.732;2023-02-21T04:31:45;2.40;;;2.20;;
8001;SDS011;4046;48.774;8.732;2023-02-21T04:34:11;1.80;;;1.70;;
8001;SDS011;4046;48.774;8.732;2023-02-21T04:36:38;2.07;;;1.97;;
8001;SDS011;4046;48.774;8.732;2023-02-21T04:39:04;1.80;;;1.70;;
8001;SDS011;4046;48.774;8.732;2023-02-21T04:41:32;1.87;;;1.77;;
8001;SDS011;4046;48.774;8.732;2023-02-21T04:43:58;1.83;;;1.73;;
8001;SDS011;4046;48.774;8.732;2023-02-21T04:46:25;1.87;;;1.77;;
8001;SDS011;4046;48.774;8.732;2023-02-21T04:48:51;1.73;;;1.63;;
8001;SDS011;4046;48.774;8.732;2023-02-21T04:51:19;2.00;;;1.90;;
8001;SDS011;4046;48.774;8.732;2023-02-21T04:53:47;2.03;;;1.87;;
8001;SDS011;4046;48.774;8.732;2023-02-21T04:56:16;1.90;;;1.80;;
8001;SDS011;4046;48.774;8.732;2023-02-21T04:58:45;1.60;;;1.50;;
8001;SDS011;4046;48.774;8.732;2023-02-21T05:01:12;2.00;;;1.80;;
8001;SDS011;4046;48.774;8.732;2023-02-21T05:03:39;1.70;;;1.60;;
8001;SDS011;4046;48.774;8.732;2023-02-21T05:06:06;2.17;;;1.90;;
8001;SDS011;4046;48.774;8.732;2023-02-21T05:08:32;2.10;;;1.90;;
8001;SDS011;4046;48.774;8.732;2023-02-21T05:10:58;1.93;;;1.83;;
8001;SDS011;4046;48.774;8.732;2023-02-21T05:13:25;1.70;;;1.60;;
8001;SDS011;4046;48.774;8.732;2023-02-21T05:15:51;2.00;;;1.90;;
8001;SDS011;4046;48.774;8.732;2023-02-21T05:18:17;1.90;;;1.80;;
8001;SDS011;4046;48.774;8.732;2023-02-21T05:20:50;2.27;;;2.10;;
8001;SDS011;4046;48.774;8.732;2023-02-21T05:23:17;1.73;;;1.63;;
8001;SDS011;4046;48.774;8.732;2023-02-21T05:26:02;1.70;;;1.60;;
8001;SDS011;4046;48.774;8.732;2023-02-21T05:28:30;2.00;;;1.80;;
8001;SDS011;4046;48.774;8.732;2023-02-21T05:30:57;1.80;;;1.70;;
8001;SDS011;4046;48.774;8.732;2023-02-21T05:33:23;2.23;;;2.13;;
8001;SDS011;4046;48.774;8.732;2023-02-21T05:35:50;1.63;;;1.50;;
8001;SDS011;4046;48.774;8.732;2023-02-21T05:38:17;1.70;;;1.60;;
8001;SDS011;4046;48.774;8.732;2023-02-21T05:40:45;1.93;;;1.63;;
8001;SDS011;4046;48.774;8.732;2023-02-21T05:43:12;1.60;;;1.50;;
8001;SDS011;4046;48.774;8.732;2023-02-21T05:45:38;1.80;;;1.70;;
8001;SDS011;4046;48.774;8.732;2023-02-21T05:48:05;1.80;;;1.70;;
8001;SDS011;4046;48.774;8.732;2023-02-21T05:50:31;2.13;;;1.93;;
8001;SDS011;4046;48.774;8.732;2023-02-21T05:52:58;1.90;;;1.80;;
8001;SDS011;4046;48.774;8.732;2023-02-21T05:55:25;1.93;;;1.80;;
8001;SDS011;4046;48.774;8.732;2023-02-21T05:57:51;2.00;;;1.90;;
8001;SDS011;4046;48.774;8.732;2023-02-21T06:00:20;2.03;;;1.93;;
8001;SDS011;4046;48.774;8.732;2023-02-21T06:02:49;1.67;;;1.57;;
8001;SDS011;4046;48.774;8.732;2023-02-21T06:05:17;1.80;;;1.70;;
8001;SDS011;4046;48.774;8.732;2023-02-21T06:07:44;1.70;;;1.60;;
8001;SDS011;4046;48.774;8.732;2023-02-21T06:10:11;1.80;;;1.70;;
8001;SDS011;4046;48.774;8.732;2023-02-21T06:12:38;1.77;;;1.67;;
8001;SDS011;4046;48.774;8.732;2023-02-21T06:15:05;1.90;;;1.80;;
8001;SDS011;4046;48.774;8.732;2023-02-21T06:17:32;2.03;;;1.87;;
8001;SDS011;4046;48.774;8.732;2023-02-21T06:20:01;1.70;;;1.50;;
8001;SDS011;4046;48.774;8.732;2023-02-21T06:22:27;1.67;;;1.57;;
8001;SDS011;4046;48.774;8.732;2023-02-21T06:24:53;1.60;;;1.50;;
8001;SDS011;4046;48.774;8.732;2023-02-21T06:27:20;1.87;;;1.77;;
8001;SDS011;4046;48.774;8.732;2023-02-21T06:29:46;1.80;;;1.50;;
8001;SDS011;4046;48.774;8.732;2023-02-21T06:32:12;1.70;;;1.60;;
8001;SDS011;4046;48.774;8.732;2023-02-21T06:34:38;2.40;;;2.20;;
8001;SDS011;4046;48.774;8.732;2023-02-21T06:37:04;1.93;;;1.83;;
8001;SDS011;4046;48.774;8.732;2023-02-21T06:39:31;1.90;;;1.80;;
8001;SDS011;4046;48.774;8.732;2023-02-21T06:41:58;1.80;;;1.70;;
8001;SDS011;4046;48.774;8.732;2023-02-21T06:44:24;1.70;;;1.60;;
8001;SDS011;4046;48.774;8.732;2023-02-21T06:46:50;1.90;;;1.80;;
8001;SDS011;4046;48.774;8.732;2023-02-21T06:49:19;1.67;;;1.50;;
8001;SDS011;4046;48.774;8.732;2023-02-21T06:51:46;1.80;;;1.70;;
8001;SDS011;4046;48.774;8.732;2023-02-21T06:54:12;1.90;;;1.63;;
8001;SDS011;4046;48.774;8.732;2023-02-21T06:56:41;1.50;;;1.40;;
8001;SDS011;4046;48.774;8.732;2023-02-21T06:59:09;1.70;;;1.60;;
8001;SDS011;4046;48.774;8.732;2023-02-21T07:01:35;1.73;;;1.63;;
8001;SDS011;4046;48.774;8.732;2023-02-21T07:04:02;1.53;;;1.43;;
8001;SDS011;4046;48.774;8.732;2023-02-21T07:06:29;1.60;;;1.50;;
8001;SDS011;4046;48.774;8.732;2023-02-21T07:08:56;1.60;;;1.50;;
8001;SDS011;4046;48.774;8.732;2023-02-21T07:11:22;1.83;;;1.73;;
8001;SDS011;4046;48.774;8.732;2023-02-21T07:13:52;1.70;;;1.60;;
8001;SDS011;4046;48.774;8.732;2023-02-21T07:16:21;1.73;;;1.63;;
8001;SDS011;4046;48.774;8.732;2023-02-21T07:18:47;1.73;;;1.63;;
8001;SDS011;4046;48.774;8.732;2023-02-21T07:21:14;1.67;;;1.57;;
8001;SDS011;4046;48.774;8.732;2023-02-21T07:23:42;8.93;;;2.47;;
8001;SDS011;4046;48.774;8.732;2023-02-21T07:26:09;4.63;;;2.43;;
8001;SDS011;4046;48.774;8.732;2023-02-21T07:28:35;8.60;;;2.33;;
8001;SDS011;4046;48.774;8.732;2023-02-21T07:31:02;5.03;;;2.17;;
8001;SDS011;4046;48.774;8.732;2023-02-21T07:33:29;6.20;;;2.03;;
8001;SDS011;4046;48.774;8.732;2023-02-21T07:35:55;8.23;;;2.03;;
8001;SDS011;4046;48.774;8.732;2023-02-21T07:38:22;4.83;;;1.97;;
8001;SDS011;4046;48.774;8.732;2023-02-21T07:40:50;8.20;;;2.30;;
8001;SDS011;4046;48.774;8.732;2023-02-21T07:43:19;3.70;;;2.10;;
8001;SDS011;4046;48.774;8.732;2023-02-21T07:45:46;5.10;;;2.47;;
8001;SDS011;4046;48.774;8.732;2023-02-21T07:48:12;5.90;;;2.33;;
8001;SDS011;4046;48.774;8.732;2023-02-21T07:50:42;7.00;;;2.10;;
8001;SDS011;4046;48.774;8.732;2023-02-21T07:53:09;2.47;;;2.00;;
8001;SDS011;4046;48.774;8.732;2023-02-21T07:55:37;4.80;;;2.17;;
8001;SDS011;4046;48.774;8.732;2023-02-21T07:58:03;4.90;;;1.80;;
8001;SDS011;4046;48.774;8.732;2023-02-21T08:00:30;4.20;;;1.90;;
8001;SDS011;4046;48.774;8.732;2023-02-21T08:02:56;3.30;;;1.80;;
8001;SDS011;4046;48.774;8.732;2023-02-21T08:05:23;4.17;;;1.80;;
8001;SDS011;4046;48.774;8.732;2023-02-21T08:07:49;2.53;;;1.80;;
8001;SDS011;4046;48.774;8.732;2023-02-21T08:10:20;4.37;;;2.20;;
8001;SDS011;4046;48.774;8.732;2023-02-21T08:12:48;4.50;;;1.90;;
8001;SDS011;4046;48.774;8.732;2023-02-21T08:15:15;3.40;;;2.00;;
8001;SDS011;4046;48.774;8.732;2023-02-21T08:17:42;3.70;;;2.43;;
8001;SDS011;4046;48.774;8.732;2023-02-21T08:20:08;3.00;;;1.90;;
8001;SDS011;4046;48.774;8.732;2023-02-21T08:22:35;3.17;;;1.60;;
8001;SDS011;4046;48.774;8.732;2023-02-21T08:25:02;2.00;;;1.80;;
8001;SDS011;4046;48.774;8.732;2023-02-21T08:27:28;2.50;;;1.80;;
8001;SDS011;4046;48.774;8.732;2023-02-21T08:29:54;3.80;;;1.90;;
8001;SDS011;4046;48.774;8.732;2023-02-21T08:32:21;1.90;;;1.67;;
8001;SDS011;4046;48.774;8.732;2023-02-21T08:34:47;3.63;;;1.77;;
8001;SDS011;4046;48.774;8.732;2023-02-21T08:37:14;2.67;;;1.70;;
8001;SDS011;4046;48.774;8.732;2023-02-21T08:39:45;4.07;;;2.00;;
8001;SDS011;4046;48.774;8.732;2023-02-21T08:42:12;3.00;;;2.00;;
8001;SDS011;4046;48.774;8.732;2023-02-21T08:44:38;2.13;;;1.67;;
8001;SDS011;4046;48.774;8.732;2023-02-21T08:47:09;2.37;;;1.70;;
8001;SDS011;4046;48.774;8.732;2023-02-21T08:49:36;2.00;;;1.70;;
8001;SDS011;4046;48.774;8.732;2023-02-21T08:52:07;2.97;;;1.87;;
8001;SDS011;4046;48.774;8.732;2023-02-21T08:54:34;2.27;;;1.63;;
8001;SDS011;4046;48.774;8.732;2023-02-21T08:57:01;2.17;;;1.97;;
8001;SDS011;4046;48.774;8.732;2023-02-21T08:59:27;1.70;;;1.60;;
8001;SDS011;4046;48.774;8.732;2023-02-21T09:01:58;2.13;;;1.93;;
8001;SDS011;4046;48.774;8.732;2023-02-21T09:04:26;2.33;;;2.00;;
8001;SDS011;4046;48.774;8.732;2023-02-21T09:06:53;1.77;;;1.67;;
8001;SDS011;4046;48.774;8.732;2023-02-21T09:09:20;1.70;;;1.60;;
8001;SDS011;4046;48.774;8.732;2023-02-21T09:11:47;2.73;;;1.93;;
8001;SDS011;4046;48.774;8.732;2023-02-21T09:14:14;2.23;;;1.90;;
8001;SDS011;4046;48.774;8.732;2023-02-21T09:16:42;2.00;;;1.80;;
8001;SDS011;4046;48.774;8.732;2023-02-21T09:19:08;1.97;;;1.57;;
8001;SDS011;4046;48.774;8.732;2023-02-21T09:21:35;3.77;;;1.60;;
8001;SDS011;4046;48.774;8.732;2023-02-21T09:24:01;3.07;;;1.90;;
8001;SDS011;4046;48.774;8.732;2023-02-21T09:26:28;3.30;;;1.53;;
8001;SDS011;4046;48.774;8.732;2023-02-21T09:28:57;2.23;;;1.83;;
8001;SDS011;4046;48.774;8.732;2023-02-21T09:31:24;4.90;;;2.00;;
8001;SDS011;4046;48.774;8.732;2023-02-21T09:33:50;3.07;;;1.73;;
8001;SDS011;4046;48.774;8.732;2023-02-21T09:36:16;2.43;;;1.73;;
8001;SDS011;4046;48.774;8.732;2023-02-21T09:38:49;2.00;;;1.70;;
8001;SDS011;4046;48.774;8.732;2023-02-21T09:41:16;3.63;;;1.70;;
8001;SDS011;4046;48.774;8.732;2023-02-21T09:43:47;2.93;;;1.87;;
8001;SDS011;4046;48.774;8.732;2023-02-21T09:46:18;4.07;;;1.70;;
8001;SDS011;4046;48.774;8.732;2023-02-21T09:48:54;2.70;;;2.00;;
8001;SDS011;4046;48.774;8.732;2023-02-21T09:51:20;7.73;;;5.60;;
8001;SDS011;4046;48.774;8.732;2023-02-21T09:53:47;16.83;;;10.00;;
8001;SDS011;4046;48.774;8.732;2023-02-21T09:58:45;15.57;;;8.40;;
8001;SDS011;4046;48.774;8.732;2023-02-21T10:01:19;15.23;;;8.63;;
8001;SDS011;4046;48.774;8.732;2023-02-21T10:04:01;11.53;;;8.77;;
8001;SDS011;4046;48.774;8.732;2023-02-21T10:06:45;16.30;;;8.93;;
8001;SDS011;4046;48.774;8.732;2023-02-21T10:09:27;10.47;;;8.07;;
8001;SDS011;4046;48.774;8.732;2023-02-21T10:12:23;9.83;;;7.13;;
8001;SDS011;4046;48.774;8.732;2023-02-21T10:18:03;9.20;;;7.07;;
8001;SDS011;4046;48.774;8.732;2023-02-21T10:21:00;10.17;;;7.00;;
8001;SDS011;4046;48.774;8.732;2023-02-21T10:26:04;7.37;;;6.07;;
8001;SDS011;4046;48.774;8.732;2023-02-21T10:28:35;6.90;;;6.00;;
8001;SDS011;4046;48.774;8.732;2023-02-21T10:33:54;8.47;;;5.80;;
8001;SDS011;4046;48.774;8.732;2023-02-21T10:36:21;8.10;;;5.63;;
8001;SDS011;4046;48.774;8.732;2023-02-21T10:38:58;8.57;;;6.40;;
8001;SDS011;4046;48.774;8.732;2023-02-21T10:41:31;5.93;;;5.00;;
8001;SDS011;4046;48.774;8.732;2023-02-21T10:44:24;8.30;;;5.50;;
8001;SDS011;4046;48.774;8.732;2023-02-21T10:53:06;5.83;;;4.53;;
8001;SDS011;4046;48.774;8.732;2023-02-21T10:55:34;5.63;;;5.10;;
8001;SDS011;4046;48.774;8.732;2023-02-21T10:58:16;7.73;;;4.90;;
8001;SDS011;4046;48.774;8.732;2023-02-21T11:00:48;6.23;;;4.90;;
8001;SDS011;4046;48.774;8.732;2023-02-21T11:03:23;6.40;;;5.30;;
8001;SDS011;4046;48.774;8.732;2023-02-21T11:05:54;5.13;;;4.17;;
8001;SDS011;4046;48.774;8.732;2023-02-21T11:08:35;4.80;;;4.40;;
8001;SDS011;4046;48.774;8.732;2023-02-21T11:11:07;8.60;;;4.83;;
8001;SDS011;4046;48.774;8.732;2023-02-21T11:13:34;6.27;;;4.80;;
8001;SDS011;4046;48.774;8.732;2023-02-21T11:18:44;6.80;;;4.70;;
8001;SDS011;4046;48.774;8.732;2023-02-21T11:21:14;5.87;;;4.20;;
8001;SDS011;4046;48.774;8.732;2023-02-21T11:24:04;6.40;;;4.60;;
8001;SDS011;4046;48.774;8.732;2023-02-21T11:26:35;4.50;;;3.83;;
8001;SDS011;4046;48.774;8.732;2023-02-21T11:29:10;4.93;;;4.13;;
8001;SDS011;4046;48.774;8.732;2023-02-21T11:31:43;5.13;;;4.23;;
8001;SDS011;4046;48.774;8.732;2023-02-21T11:34:11;4.33;;;3.90;;
8001;SDS011;4046;48.774;8.732;2023-02-21T11:36:40;5.50;;;4.03;;
8001;SDS011;4046;48.774;8.732;2023-02-21T11:39:42;6.00;;;4.23;;
8001;SDS011;4046;48.774;8.732;2023-02-21T11:42:02;6.90;;;3.43;;
8001;SDS011;4046;48.774;8.732;2023-02-21T11:44:41;6.60;;;4.30;;
8001;SDS011;4046;48.774;8.732;2023-02-21T11:47:27;14.33;;;4.40;;
8001;SDS011;4046;48.774;8.732;2023-02-21T11:55:03;5.30;;;3.30;;
8001;SDS011;4046;48.774;8.732;2023-02-21T12:06:04;3.73;;;3.10;;
8001;SDS011;4046;48.774;8.732;2023-02-21T12:08:46;3.50;;;3.10;;
8001;SDS011;4046;48.774;8.732;2023-02-21T12:17:11;4.60;;;3.63;;
8001;SDS011;4046;48.774;8.732;2023-02-21T12:19:46;5.80;;;3.40;;
8001;SDS011;4046;48.774;8.732;2023-02-21T12:28:15;3.70;;;3.40;;
8001;SDS011;4046;48.774;8.732;2023-02-21T12:36:43;4.70;;;3.37;;
8001;SDS011;4046;48.774;8.732;2023-02-21T12:48:07;3.23;;;2.70;;
8001;SDS011;4046;48.774;8.732;2023-02-21T12:50:42;2.60;;;2.40;;
8001;SDS011;4046;48.774;8.732;2023-02-21T12:53:21;3.13;;;2.23;;
8001;SDS011;4046;48.774;8.732;2023-02-21T13:01:20;3.70;;;2.63;;
8001;SDS011;4046;48.774;8.732;2023-02-21T13:03:58;4.00;;;2.53;;
8001;SDS011;4046;48.774;8.732;2023-02-21T13:06:45;3.97;;;2.50;;
8001;SDS011;4046;48.774;8.732;2023-02-21T13:12:06;3.10;;;2.70;;
8001;SDS011;4046;48.774;8.732;2023-02-21T13:14:38;2.70;;;2.20;;
8001;SDS011;4046;48.774;8.732;2023-02-21T13:17:08;3.00;;;2.70;;
8001;SDS011;4046;48.774;8.732;2023-02-21T13:19:59;3.60;;;2.60;;
8001;SDS011;4046;48.774;8.732;2023-02-21T13:25:35;2.80;;;2.27;;
8001;SDS011;4046;48.774;8.732;2023-02-21T13:28:21;3.00;;;2.70;;
8001;SDS011;4046;48.774;8.732;2023-02-21T13:31:02;2.87;;;2.60;;
8001;SDS011;4046;48.774;8.732;2023-02-21T13:33:37;2.77;;;1.97;;
8001;SDS011;4046;48.774;8.732;2023-02-21T13:36:23;5.23;;;2.20;;
8001;SDS011;4046;48.774;8.732;2023-02-21T13:47:03;3.47;;;2.10;;
8001;SDS011;4046;48.774;8.732;2023-02-21T13:49:36;3.50;;;1.70;;
8001;SDS011;4046;48.774;8.732;2023-02-21T14:10:48;4.40;;;1.80;;
8001;SDS011;4046;48.774;8.732;2023-02-21T14:18:50;3.90;;;2.17;;
8001;SDS011;4046;48.774;8.732;2023-02-21T14:23:59;4.63;;;2.20;;
8001;SDS011;4046;48.774;8.732;2023-02-21T14:26:41;2.20;;;1.70;;
8001;SDS011;4046;48.774;8.732;2023-02-21T14:37:14;3.00;;;1.83;;
8001;SDS011;4046;48.774;8.732;2023-02-21T14:39:43;2.63;;;1.80;;
8001;SDS011;4046;48.774;8.732;2023-02-21T14:50:51;1.93;;;1.50;;
8001;SDS011;4046;48.774;8.732;2023-02-21T14:59:16;2.43;;;1.53;;
8001;SDS011;4046;48.774;8.732;2023-02-21T15:12:50;2.77;;;1.97;;
8001;SDS011;4046;48.774;8.732;2023-02-21T15:15:40;7.37;;;2.27;;
8001;SDS011;4046;48.774;8.732;2023-02-21T15:18:07;1.80;;;1.40;;
8001;SDS011;4046;48.774;8.732;2023-02-21T15:20:36;2.20;;;1.63;;
8001;SDS011;4046;48.774;8.732;2023-02-21T15:23:13;2.77;;;1.73;;
8001;SDS011;4046;48.774;8.732;2023-02-21T15:25:55;1.50;;;1.20;;
8001;SDS011;4046;48.774;8.732;2023-02-21T15:31:01;1.53;;;1.30;;
8001;SDS011;4046;48.774;8.732;2023-02-21T15:33:36;2.83;;;1.97;;
8001;SDS011;4046;48.774;8.732;2023-02-21T15:36:13;1.93;;;1.40;;
8001;SDS011;4046;48.774;8.732;2023-02-21T15:38:46;1.50;;;1.30;;
8001;SDS011;4046;48.774;8.732;2023-02-21T15:44:15;1.93;;;1.70;;
8001;SDS011;4046;48.774;8.732;2023-02-21T15:51:56;1.80;;;1.70;;
8001;SDS011;4046;48.774;8.732;2023-02-21T15:54:27;2.60;;;1.73;;
8001;SDS011;4046;48.774;8.732;2023-02-21T15:59:30;2.30;;;1.63;;
8001;SDS011;4046;48.774;8.732;2023-02-21T16:04:42;1.50;;;1.40;;
8001;SDS011;4046;48.774;8.732;2023-02-21T16:07:15;2.83;;;1.80;;
8001;SDS011;4046;48.774;8.732;2023-02-21T16:09:45;3.27;;;2.23;;
8001;SDS011;4046;48.774;8.732;2023-02-21T16:12:20;2.13;;;1.50;;
8001;SDS011;4046;48.774;8.732;2023-02-21T16:14:56;2.33;;;1.50;;
8001;SDS011;4046;48.774;8.732;2023-02-21T16:17:34;2.00;;;1.80;;
8001;SDS011;4046;48.774;8.732;2023-02-21T16:22:42;1.93;;;1.70;;
8001;SDS011;4046;48.774;8.732;2023-02-21T16:25:22;2.00;;;1.50;;
8001;SDS011;4046;48.774;8.732;2023-02-21T16:27:53;1.63;;;1.53;;
8001;SDS011;4046;48.774;8.732;2023-02-21T16:30:23;1.57;;;1.47;;
8001;SDS011;4046;48.774;8.732;2023-02-21T16:32:59;1.60;;;1.50;;
8001;SDS011;4046;48.774;8.732;2023-02-21T16:35:28;1.63;;;1.43;;
8001;SDS011;4046;48.774;8.732;2023-02-21T16:37:56;1.50;;;1.30;;
8001;SDS011;4046;48.774;8.732;2023-02-21T16:40:25;2.03;;;1.53;;
8001;SDS011;4046;48.774;8.732;2023-02-21T16:42:54;1.83;;;1.63;;
8001;SDS011;4046;48.774;8.732;2023-02-21T16:45:21;1.67;;;1.57;;
8001;SDS011;4046;48.774;8.732;2023-02-21T16:47:49;2.60;;;1.80;;
8001;SDS011;4046;48.774;8.732;2023-02-21T16:50:21;2.03;;;1.50;;
8001;SDS011;4046;48.774;8.732;2023-02-21T16:52:57;2.57;;;1.73;;
8001;SDS011;4046;48.774;8.732;2023-02-21T16:55:24;2.50;;;1.50;;
8001;SDS011;4046;48.774;8.732;2023-02-21T16:57:52;1.70;;;1.50;;
8001;SDS011;4046;48.774;8.732;2023-02-21T17:00:20;2.37;;;1.80;;
8001;SDS011;4046;48.774;8.732;2023-02-21T17:02:47;1.60;;;1.50;;
8001;SDS011;4046;48.774;8.732;2023-02-21T17:05:14;3.73;;;1.70;;
8001;SDS011;4046;48.774;8.732;2023-02-21T17:07:41;1.53;;;1.43;;
8001;SDS011;4046;48.774;8.732;2023-02-21T17:10:09;1.60;;;1.37;;
8001;SDS011;4046;48.774;8.732;2023-02-21T17:12:36;1.80;;;1.70;;
8001;SDS011;4046;48.774;8.732;2023-02-21T17:15:02;1.53;;;1.43;;
8001;SDS011;4046;48.774;8.732;2023-02-21T17:17:29;1.60;;;1.50;;
8001;SDS011;4046;48.774;8.732;2023-02-21T17:19:55;2.37;;;1.63;;
8001;SDS011;4046;48.774;8.732;2023-02-21T17:22:21;1.90;;;1.50;;
8001;SDS011;4046;48.774;8.732;2023-02-21T17:24:48;1.70;;;1.50;;
8001;SDS011;4046;48.774;8.732;2023-02-21T17:27:14;1.40;;;1.10;;
8001;SDS011;4046;48.774;8.732;2023-02-21T17:29:40;2.17;;;1.37;;
8001;SDS011;4046;48.774;8.732;2023-02-21T17:32:07;1.63;;;1.53;;
8001;SDS011;4046;48.774;8.732;2023-02-21T17:34:33;1.40;;;1.30;;
8001;SDS011;4046;48.774;8.732;2023-02-21T17:37:00;1.97;;;1.70;;
8001;SDS011;4046;48.774;8.732;2023-02-21T17:39:27;2.07;;;1.27;;
8001;SDS011;4046;48.774;8.732;2023-02-21T17:41:54;1.60;;;1.47;;
8001;SDS011;4046;48.774;8.732;2023-02-21T17:44:21;1.50;;;1.40;;
8001;SDS011;4046;48.774;8.732;2023-02-21T17:46:49;1.63;;;1.50;;
8001;SDS011;4046;48.774;8.732;2023-02-21T17:49:18;1.70;;;1.60;;
8001;SDS011;4046;48.774;8.732;2023-02-21T17:51:45;1.50;;;1.40;;
8001;SDS011;4046;48.774;8.732;2023-02-21T17:54:12;1.60;;;1.40;;
8001;SDS011;4046;48.774;8.732;2023-02-21T17:56:39;1.60;;;1.50;;
8001;SDS011;4046;48.774;8.732;2023-02-21T17:59:05;1.40;;;1.30;;
8001;SDS011;4046;48.774;8.732;2023-02-21T18:01:31;1.60;;;1.47;;
8001;SDS011;4046;48.774;8.732;2023-02-21T18:03:57;1.60;;;1.50;;
8001;SDS011;4046;48.774;8.732;2023-02-21T18:06:26;1.50;;;1.40;;
8001;SDS011;4046;48.774;8.732;2023-02-21T18:08:53;1.50;;;1.33;;
8001;SDS011;4046;48.774;8.732;2023-02-21T18:11:21;1.73;;;1.37;;
8001;SDS011;4046;48.774;8.732;2023-02-21T18:13:48;1.60;;;1.30;;
8001;SDS011;4046;48.774;8.732;2023-02-21T18:16:15;2.23;;;1.47;;
8001;SDS011;4046;48.774;8.732;2023-02-21T18:18:42;1.83;;;1.63;;
8001;SDS011;4046;48.774;8.732;2023-02-21T18:21:08;2.30;;;1.53;;
8001;SDS011;4046;48.774;8.732;2023-02-21T18:23:34;2.17;;;1.50;;
8001;SDS011;4046;48.774;8.732;2023-02-21T18:26:02;1.80;;;1.70;;
8001;SDS011;4046;48.774;8.732;2023-02-21T18:28:29;1.70;;;1.60;;
8001;SDS011;4046;48.774;8.732;2023-02-21T18:30:56;1.57;;;1.47;;
8001;SDS011;4046;48.774;8.732;2023-02-21T18:33:23;1.60;;;1.50;;
8001;SDS011;4046;48.774;8.732;2023-02-21T18:35:52;3.53;;;1.53;;
8001;SDS011;4046;48.774;8.732;2023-02-21T18:38:20;3.20;;;1.73;;
8001;SDS011;4046;48.774;8.732;2023-02-21T18:40:47;1.80;;;1.70;;
8001;SDS011;4046;48.774;8.732;2023-02-21T18:43:31;1.83;;;1.73;;
8001;SDS011;4046;48.774;8.732;2023-02-21T18:45:58;2.10;;;1.90;;
8001;SDS011;4046;48.774;8.732;2023-02-21T18:48:24;1.60;;;1.50;;
8001;SDS011;4046;48.774;8.732;2023-02-21T18:50:51;2.30;;;2.10;;
8001;SDS011;4046;48.774;8.732;2023-02-21T18:53:18;1.83;;;1.70;;
8001;SDS011;4046;48.774;8.732;2023-02-21T18:55:45;1.90;;;1.80;;
8001;SDS011;4046;48.774;8.732;2023-02-21T18:58:11;2.13;;;1.90;;
8001;SDS011;4046;48.774;8.732;2023-02-21T19:00:37;1.70;;;1.60;;